createdAt,value
2018-07-19T00:01:57.709Z,74.83
2018-07-19T00:04:28.004Z,74.92
2018-07-19T00:06:57.475Z,74.30
2018-07-19T00:09:26.530Z,75.16
2018-07-19T00:11:55.533Z,74.33
2018-07-19T00:14:24.582Z,74.99
2018-07-19T00:16:54.435Z,74.49
2018-07-19T00:19:23.284Z,74.76
2018-07-19T00:21:52.807Z,75.65
2018-07-19T00:24:21.799Z,75.86
2018-07-19T00:26:50.563Z,76.06
2018-07-19T00:29:19.415Z,75.50
2018-07-19T00:31:48.906Z,75.67
2018-07-19T00:34:18.190Z,76.17
2018-07-19T00:36:46.943Z,76.23
2018-07-19T00:39:16.432Z,76.49
2018-07-19T00:41:46.705Z,76.47
2018-07-19T00:44:16.874Z,76.32
2018-07-19T00:46:46.259Z,75.64
2018-07-19T00:49:15.098Z,75.68
2018-07-19T00:51:44.003Z,75.23
2018-07-19T00:54:12.847Z,75.83
2018-07-19T00:56:42.661Z,75.97
2018-07-19T00:59:11.450Z,75.02
2018-07-19T01:01:41.386Z,75.39
2018-07-19T01:04:10.899Z,74.81
2018-07-19T01:06:39.675Z,75.77
2018-07-19T01:09:10.591Z,75.45
2018-07-19T01:11:39.661Z,76.14
2018-07-19T01:14:08.735Z,76.35
2018-07-19T01:16:38.190Z,75.57
2018-07-19T01:19:07.007Z,76.13
2018-07-19T01:21:36.446Z,75.71
2018-07-19T01:24:05.332Z,76.13
2018-07-19T01:26:34.161Z,75.63
2018-07-19T01:29:03.320Z,75.70
2018-07-19T01:31:32.434Z,75.84
2018-07-19T01:34:01.579Z,76.14
2018-07-19T01:36:30.855Z,76.11
2018-07-19T01:39:00.502Z,76.20
2018-07-19T01:42:18.764Z,76.51
2018-07-19T01:44:47.530Z,76.62
2018-07-19T01:47:16.340Z,76.15
2018-07-19T01:49:45.971Z,76.34
2018-07-19T01:52:15.220Z,76.49
2018-07-19T01:54:44.189Z,76.13
2018-07-19T01:57:14.709Z,75.93
2018-07-19T01:59:44.067Z,75.38
2018-07-19T02:02:13.753Z,75.51
2018-07-19T02:04:43.356Z,75.33
2018-07-19T02:07:12.224Z,74.62
2018-07-19T02:09:41.070Z,74.70
2018-07-19T02:12:10.019Z,74.82
2018-07-19T02:14:38.891Z,74.81
2018-07-19T02:17:08.042Z,75.67
2018-07-19T02:19:36.855Z,75.32
2018-07-19T02:22:05.737Z,75.79
2018-07-19T02:24:34.692Z,76.15
2018-07-19T02:27:03.708Z,76.54
2018-07-19T02:29:33.885Z,76.49
2018-07-19T02:32:03.334Z,76.08
2018-07-19T02:34:32.808Z,75.48
2018-07-19T02:37:02.707Z,75.62
2018-07-19T02:39:31.755Z,75.86
2018-07-19T02:42:01.324Z,75.70
2018-07-19T02:44:30.683Z,76.17
2018-07-19T02:46:59.584Z,75.97
2018-07-19T02:49:28.588Z,75.96
2018-07-19T02:51:57.505Z,76.29
2018-07-19T02:54:27.330Z,76.40
2018-07-19T02:56:56.934Z,76.89
2018-07-19T02:59:25.833Z,76.82
2018-07-19T03:01:55.877Z,75.63
2018-07-19T03:04:26.003Z,76.04
2018-07-19T03:06:54.809Z,75.18
2018-07-19T03:09:24.191Z,74.57
2018-07-19T03:11:52.991Z,73.08
2018-07-19T03:14:21.772Z,72.73
2018-07-19T03:16:51.237Z,73.31
2018-07-19T03:19:20.075Z,72.90
2018-07-19T03:21:49.171Z,73.76
2018-07-19T03:24:18.026Z,73.15
2018-07-19T03:26:46.819Z,73.26
2018-07-19T03:29:15.685Z,73.11
2018-07-19T03:31:44.472Z,73.65
2018-07-19T03:34:13.186Z,75.08
2018-07-19T03:36:42.587Z,75.04
2018-07-19T03:39:11.987Z,75.69
2018-07-19T03:41:41.774Z,75.66
2018-07-19T03:44:10.539Z,76.03
2018-07-19T03:46:39.355Z,75.20
2018-07-19T03:49:08.125Z,75.66
2018-07-19T03:51:36.938Z,75.94
2018-07-19T03:54:06.306Z,75.07
2018-07-19T03:56:35.846Z,75.16
2018-07-19T03:59:04.615Z,74.98
2018-07-19T04:01:34.373Z,75.67
2018-07-19T04:04:03.892Z,74.62
2018-07-19T04:06:32.917Z,74.66
2018-07-19T04:09:01.948Z,75.03
2018-07-19T04:11:31.499Z,75.24
2018-07-19T04:14:00.364Z,75.11
2018-07-19T04:16:30.192Z,75.23
2018-07-19T04:18:59.148Z,74.56
2018-07-19T04:21:27.938Z,74.49
2018-07-19T04:23:56.935Z,73.62
2018-07-19T04:26:26.011Z,73.85
2018-07-19T04:28:54.906Z,73.86
2018-07-19T04:31:23.755Z,73.17
2018-07-19T04:33:52.538Z,72.60
2018-07-19T04:36:22.310Z,72.08
2018-07-19T04:38:51.138Z,71.89
2018-07-19T04:41:20.712Z,71.82
2018-07-19T04:43:49.511Z,71.68
2018-07-19T04:46:18.340Z,71.79
2018-07-19T04:48:47.155Z,71.24
2018-07-19T04:51:15.925Z,71.03
2018-07-19T04:53:45.437Z,70.80
2018-07-19T04:56:15.463Z,71.12
2018-07-19T04:58:44.204Z,71.06
2018-07-19T05:01:13.064Z,70.16
2018-07-19T05:03:42.962Z,69.35
2018-07-19T05:06:11.755Z,68.72
2018-07-19T05:08:40.538Z,68.02
2018-07-19T05:11:09.787Z,67.69
2018-07-19T05:13:38.554Z,66.05
2018-07-19T05:16:08.116Z,65.17
2018-07-19T05:18:36.871Z,65.85
2018-07-19T05:21:05.744Z,63.19
2018-07-19T05:23:34.560Z,62.69
2018-07-19T05:26:03.575Z,62.67
2018-07-19T05:28:32.788Z,61.58
2018-07-19T05:31:01.995Z,61.37
2018-07-19T05:33:30.995Z,60.67
2018-07-19T05:36:00.819Z,60.06
2018-07-19T05:38:29.936Z,60.03
2018-07-19T05:40:58.900Z,59.72
2018-07-19T05:43:28.494Z,60.51
2018-07-19T05:45:57.281Z,60.64
2018-07-19T05:48:26.080Z,59.75
2018-07-19T05:50:54.886Z,59.56
2018-07-19T05:53:24.289Z,59.17
2018-07-19T05:55:53.951Z,60.00
2018-07-19T05:58:22.844Z,59.75
2018-07-19T06:00:51.562Z,59.85
2018-07-19T06:03:21.745Z,59.82
2018-07-19T06:05:50.580Z,59.52
2018-07-19T06:08:19.396Z,60.32
2018-07-19T06:10:48.873Z,58.94
2018-07-19T06:13:17.972Z,59.59
2018-07-19T06:15:47.382Z,59.94
2018-07-19T06:18:16.191Z,59.04
2018-07-19T06:20:45.032Z,58.25
2018-07-19T06:23:13.901Z,58.88
2018-07-19T06:25:42.711Z,57.80
2018-07-19T06:28:11.754Z,57.06
2018-07-19T06:30:40.643Z,56.91
2018-07-19T06:33:09.508Z,57.49
2018-07-19T06:35:39.816Z,56.61
2018-07-19T06:38:08.680Z,56.21
2018-07-19T06:40:37.504Z,56.71
2018-07-19T06:43:07.105Z,56.11
2018-07-19T06:45:35.961Z,56.73
2018-07-19T06:48:04.959Z,56.36
2018-07-19T06:50:33.980Z,55.35
2018-07-19T06:53:03.663Z,54.45
2018-07-19T06:55:33.057Z,54.60
2018-07-19T06:58:02.105Z,54.37
2018-07-19T07:00:31.192Z,53.47
2018-07-19T07:03:01.209Z,54.40
2018-07-19T07:05:30.208Z,54.11
2018-07-19T07:07:59.060Z,53.53
2018-07-19T07:10:28.686Z,53.43
2018-07-19T07:12:57.489Z,53.49
2018-07-19T07:15:27.419Z,52.39
2018-07-19T07:17:56.248Z,52.51
2018-07-19T07:20:25.064Z,51.25
2018-07-19T07:22:53.937Z,51.43
2018-07-19T07:25:22.723Z,51.50
2018-07-19T07:27:51.688Z,50.58
2018-07-19T07:30:20.548Z,50.78
2018-07-19T07:32:49.322Z,50.45
2018-07-19T07:35:18.195Z,50.30
2018-07-19T07:37:47.775Z,50.58
2018-07-19T07:40:16.692Z,49.01
2018-07-19T07:42:46.155Z,50.41
2018-07-19T07:45:15.178Z,49.64
2018-07-19T07:47:44.000Z,49.20
2018-07-19T07:50:12.803Z,49.22
2018-07-19T07:52:43.722Z,48.31
2018-07-19T07:55:13.412Z,48.17
2018-07-19T07:57:42.155Z,48.24
2018-07-19T08:00:11.013Z,47.91
2018-07-19T08:02:40.804Z,47.35
2018-07-19T08:05:09.791Z,47.85
2018-07-19T08:07:38.555Z,47.94
2018-07-19T08:10:08.506Z,48.40
2018-07-19T08:12:37.264Z,48.54
2018-07-19T08:15:06.711Z,48.23
2018-07-19T08:17:36.399Z,47.15
2018-07-19T08:20:05.426Z,48.24
2018-07-19T08:22:34.264Z,47.30
2018-07-19T08:25:03.439Z,48.33
2018-07-19T08:27:32.332Z,45.47
2018-07-19T08:30:01.452Z,45.83
2018-07-19T08:32:30.504Z,45.26
2018-07-19T08:34:59.479Z,44.97
2018-07-19T08:37:29.079Z,44.39
2018-07-19T08:39:57.970Z,44.19
2018-07-19T08:42:27.499Z,44.54
2018-07-19T08:44:56.783Z,43.58
2018-07-19T08:47:25.527Z,44.25
2018-07-19T08:49:54.320Z,44.62
2018-07-19T08:52:23.851Z,43.45
2018-07-19T08:54:53.520Z,43.38
2018-07-19T08:57:22.293Z,43.68
2018-07-19T08:59:51.106Z,44.17
2018-07-19T09:02:20.654Z,45.46
2018-07-19T09:04:49.400Z,43.37
2018-07-19T09:07:18.159Z,44.47
2018-07-19T09:09:47.676Z,45.09
2018-07-19T09:12:16.475Z,45.34
2018-07-19T09:14:45.255Z,46.42
2018-07-19T09:17:14.941Z,46.18
2018-07-19T09:19:43.713Z,46.33
2018-07-19T09:22:12.499Z,45.36
2018-07-19T09:24:41.363Z,44.49
2018-07-19T09:27:10.138Z,44.31
2018-07-19T09:29:39.024Z,43.86
2018-07-19T09:32:07.926Z,43.26
2018-07-19T09:34:36.819Z,43.08
2018-07-19T09:37:06.358Z,42.91
2018-07-19T09:39:35.098Z,43.78
2018-07-19T09:42:04.419Z,44.38
2018-07-19T09:44:33.292Z,43.94
2018-07-19T09:47:02.359Z,42.35
2018-07-19T09:49:31.418Z,43.02
2018-07-19T09:52:01.381Z,43.11
2018-07-19T09:54:41.980Z,42.58
2018-07-19T09:57:11.599Z,42.35
2018-07-19T09:59:40.332Z,43.76
2018-07-19T10:02:10.353Z,44.10
2018-07-19T10:04:39.086Z,44.42
2018-07-19T10:07:08.262Z,43.18
2018-07-19T10:09:37.672Z,43.22
2018-07-19T10:12:06.545Z,41.91
2018-07-19T10:14:35.336Z,42.24
2018-07-19T10:17:04.747Z,40.56
2018-07-19T10:19:33.659Z,40.59
2018-07-19T10:22:02.678Z,40.00
2018-07-19T10:24:31.599Z,40.53
2018-07-19T10:27:00.563Z,40.02
2018-07-19T10:29:29.476Z,38.77
2018-07-19T10:31:59.336Z,39.17
2018-07-19T10:34:28.338Z,38.27
2018-07-19T10:36:58.219Z,38.26
2018-07-19T10:39:26.993Z,37.17
2018-07-19T10:41:56.698Z,36.96
2018-07-19T10:44:25.505Z,36.78
2018-07-19T10:46:54.246Z,36.36
2018-07-19T10:49:23.014Z,36.48
2018-07-19T10:51:51.815Z,35.21
2018-07-19T10:54:21.273Z,35.76
2018-07-19T10:56:50.582Z,36.11
2018-07-19T10:59:19.351Z,35.75
2018-07-19T11:01:48.897Z,34.93
2018-07-19T11:04:18.633Z,34.49
2018-07-19T11:06:47.399Z,34.29
2018-07-19T11:09:16.205Z,33.12
2018-07-19T11:11:45.955Z,33.92
2018-07-19T11:14:14.929Z,34.53
2018-07-19T11:16:44.264Z,34.71
2018-07-19T11:19:13.051Z,34.42
2018-07-19T11:21:41.899Z,33.52
2018-07-19T11:24:10.960Z,34.83
2018-07-19T11:26:39.741Z,33.94
2018-07-19T11:29:08.640Z,34.30
2018-07-19T11:31:37.439Z,33.59
2018-07-19T11:34:06.198Z,33.21
2018-07-19T11:36:35.741Z,34.15
2018-07-19T11:39:06.498Z,34.69
2018-07-19T11:41:35.872Z,35.63
2018-07-19T11:44:04.724Z,34.99
2018-07-19T11:46:33.586Z,34.79
2018-07-19T11:49:03.419Z,36.04
2018-07-19T11:51:33.192Z,37.55
2018-07-19T11:54:03.125Z,38.26
2018-07-19T11:56:33.604Z,36.38
2018-07-19T11:59:03.472Z,34.70
2018-07-19T12:01:34.136Z,36.52
2018-07-19T12:04:04.925Z,37.07
2018-07-19T12:06:33.900Z,35.76
2018-07-19T12:09:04.463Z,36.60
2018-07-19T12:11:35.003Z,36.54
2018-07-19T12:14:03.917Z,35.09
2018-07-19T12:16:34.029Z,35.68
2018-07-19T12:19:03.266Z,35.75
2018-07-19T12:21:33.255Z,35.16
2018-07-19T12:24:02.476Z,34.69
2018-07-19T12:26:33.469Z,34.59
2018-07-19T12:29:03.484Z,34.98
2018-07-19T12:31:32.601Z,34.13
2018-07-19T12:34:01.475Z,33.48
2018-07-19T12:36:32.306Z,31.81
2018-07-19T12:39:01.412Z,30.41
2018-07-19T12:41:32.215Z,31.36
2018-07-19T12:44:01.467Z,32.12
2018-07-19T12:46:31.532Z,32.20
2018-07-19T12:49:01.444Z,31.45
2018-07-19T12:51:30.579Z,30.99
2018-07-19T12:54:01.576Z,30.82
2018-07-19T12:56:32.245Z,30.36
2018-07-19T12:59:01.131Z,30.11
2018-07-19T13:01:30.648Z,30.05
2018-07-19T13:04:01.776Z,30.79
2018-07-19T13:06:31.637Z,30.02
2018-07-19T13:09:00.633Z,30.47
2018-07-19T13:11:30.631Z,30.04
2018-07-19T13:13:59.601Z,30.19
2018-07-19T13:16:30.456Z,29.62
2018-07-19T13:18:59.459Z,29.39
2018-07-19T13:21:28.465Z,30.73
2018-07-19T13:23:57.271Z,32.15
2018-07-19T13:26:26.055Z,31.94
2018-07-19T13:28:54.910Z,32.38
2018-07-19T13:31:23.732Z,32.81
2018-07-19T13:33:52.588Z,32.37
2018-07-19T13:36:22.379Z,32.06
2018-07-19T13:38:51.132Z,32.52
2018-07-19T13:41:21.435Z,33.07
2018-07-19T13:43:50.204Z,32.78
2018-07-19T13:46:18.931Z,33.06
2018-07-19T13:48:47.712Z,31.98
2018-07-19T13:51:16.494Z,32.02
2018-07-19T13:53:57.636Z,32.72
2018-07-19T13:56:27.016Z,32.58
2018-07-19T13:58:55.781Z,32.39
2018-07-19T14:01:25.362Z,32.75
2018-07-19T14:03:54.960Z,32.34
2018-07-19T14:06:23.744Z,32.75
2018-07-19T14:08:52.520Z,32.73
2018-07-19T14:11:22.061Z,32.37
2018-07-19T14:13:50.864Z,32.25
2018-07-19T14:16:20.408Z,32.17
2018-07-19T14:18:49.263Z,33.33
2018-07-19T14:21:18.029Z,32.85
2018-07-19T14:23:46.805Z,33.61
2018-07-19T14:26:15.571Z,32.88
2018-07-19T14:28:44.440Z,33.49
2018-07-19T14:31:13.200Z,34.00
2018-07-19T14:33:41.991Z,33.14
2018-07-19T14:36:11.600Z,32.12
2018-07-19T14:38:40.473Z,32.20
2018-07-19T14:41:10.304Z,31.35
2018-07-19T14:43:39.712Z,33.55
2018-07-19T14:46:08.552Z,35.65
2018-07-19T14:48:37.525Z,35.08
2018-07-19T14:51:06.349Z,35.50
2018-07-19T14:53:36.122Z,36.29
2018-07-19T14:56:05.582Z,36.86
2018-07-19T14:58:34.424Z,35.62
2018-07-19T15:01:03.565Z,36.15
2018-07-19T15:03:33.432Z,37.25
2018-07-19T15:06:02.593Z,37.46
2018-07-19T15:08:31.591Z,37.19
2018-07-19T15:11:01.683Z,37.22
2018-07-19T15:13:30.612Z,37.19
2018-07-19T15:16:00.743Z,37.48
2018-07-19T15:18:29.738Z,37.42
2018-07-19T15:20:59.460Z,38.61
2018-07-19T15:23:28.472Z,38.80
2018-07-19T15:25:57.688Z,40.11
2018-07-19T15:28:26.580Z,40.84
2018-07-19T15:30:55.443Z,40.43
2018-07-19T15:33:24.231Z,40.82
2018-07-19T15:35:53.961Z,42.12
2018-07-19T15:38:22.722Z,42.32
2018-07-19T15:40:51.523Z,41.99
2018-07-19T15:43:21.379Z,41.66
2018-07-19T15:45:50.204Z,42.23
2018-07-19T15:48:18.985Z,41.79
2018-07-19T15:50:47.824Z,41.67
2018-07-19T15:53:17.159Z,41.29
2018-07-19T15:55:46.678Z,42.06
2018-07-19T15:58:15.520Z,42.77
2018-07-19T16:00:44.329Z,44.10
2018-07-19T16:03:13.912Z,44.88
2018-07-19T16:05:42.775Z,44.08
2018-07-19T16:08:11.563Z,44.28
2018-07-19T16:10:41.018Z,44.81
2018-07-19T16:13:09.812Z,46.86
2018-07-19T16:15:39.191Z,46.79
2018-07-19T16:18:08.079Z,46.76
2018-07-19T16:20:36.953Z,46.91
2018-07-19T16:23:05.883Z,47.25
2018-07-19T16:25:34.696Z,46.73
2018-07-19T16:28:03.889Z,48.04
2018-07-19T16:30:32.996Z,47.52
2018-07-19T16:33:02.406Z,46.81
2018-07-19T16:35:32.821Z,47.38
2018-07-19T16:38:01.970Z,46.96
2018-07-19T16:40:31.318Z,46.80
2018-07-19T16:43:01.642Z,45.72
2018-07-19T16:45:30.535Z,46.37
2018-07-19T16:47:59.526Z,45.30
2018-07-19T16:50:28.567Z,44.46
2018-07-19T16:52:58.631Z,44.95
2018-07-19T16:55:28.221Z,44.06
2018-07-19T16:57:57.032Z,42.64
2018-07-19T17:00:25.850Z,42.41
2018-07-19T17:02:55.092Z,41.55
2018-07-19T17:05:23.886Z,41.27
2018-07-19T17:07:52.673Z,40.97
2018-07-19T17:10:22.155Z,42.29
2018-07-19T17:12:50.967Z,41.67
2018-07-19T17:15:20.470Z,42.66
2018-07-19T17:17:49.277Z,41.59
2018-07-19T17:20:18.040Z,42.08
2018-07-19T17:22:46.865Z,40.86
2018-07-19T17:25:15.656Z,40.39
2018-07-19T17:27:44.534Z,39.18
2018-07-19T17:30:13.364Z,38.09
2018-07-19T17:32:42.135Z,37.62
2018-07-19T17:35:10.872Z,38.08
2018-07-19T17:37:40.574Z,37.41
2018-07-19T17:40:09.320Z,37.83
2018-07-19T17:42:39.044Z,37.80
2018-07-19T17:45:07.915Z,38.44
2018-07-19T17:47:36.662Z,39.29
2018-07-19T17:50:05.680Z,41.04
2018-07-19T17:52:34.983Z,40.73
2018-07-19T17:55:04.916Z,41.60
2018-07-19T17:57:33.840Z,42.87
2018-07-19T18:00:02.693Z,43.04
2018-07-19T18:02:33.179Z,44.53
2018-07-19T18:05:02.510Z,43.05
2018-07-19T18:07:32.333Z,42.30
2018-07-19T18:10:03.408Z,42.15
2018-07-19T18:12:32.647Z,41.02
2018-07-19T18:15:01.953Z,42.52
2018-07-19T18:17:32.670Z,41.92
2018-07-19T18:20:02.454Z,41.40
2018-07-19T18:22:32.419Z,42.27
2018-07-19T18:25:01.989Z,41.06
2018-07-19T18:27:31.859Z,41.89
2018-07-19T18:30:01.247Z,41.58
2018-07-19T18:32:30.376Z,41.86
2018-07-19T18:34:59.144Z,41.14
2018-07-19T18:37:30.410Z,40.66
2018-07-19T18:39:59.256Z,41.00
2018-07-19T18:42:29.418Z,41.68
2018-07-19T18:44:58.175Z,41.88
2018-07-19T18:47:27.031Z,41.98
2018-07-19T18:49:55.818Z,42.86
2018-07-19T18:52:25.349Z,44.90
2018-07-19T18:54:54.057Z,46.30
2018-07-19T18:57:23.413Z,46.73
2018-07-19T18:59:52.174Z,46.80
2018-07-19T19:02:21.407Z,47.62
2018-07-19T19:04:50.192Z,47.86
2018-07-19T19:07:19.016Z,46.96
2018-07-19T19:09:48.410Z,47.42
2018-07-19T19:12:17.200Z,47.49
2018-07-19T19:14:45.951Z,48.50
2018-07-19T19:17:15.432Z,48.09
2018-07-19T19:19:44.280Z,48.15
2018-07-19T19:22:13.131Z,49.35
2018-07-19T19:24:41.989Z,49.06
2018-07-19T19:27:10.752Z,49.10
2018-07-19T19:29:39.627Z,49.11
2018-07-19T19:32:08.764Z,50.15
2018-07-19T19:34:37.494Z,49.47
2018-07-19T19:37:06.857Z,50.40
2018-07-19T19:39:35.577Z,50.50
2018-07-19T19:42:05.116Z,50.87
2018-07-19T19:44:33.951Z,51.64
2018-07-19T19:47:03.255Z,51.73
2018-07-19T19:49:33.053Z,50.76
2018-07-19T19:52:03.037Z,50.89
2018-07-19T19:54:33.081Z,50.89
2018-07-19T19:57:02.894Z,51.75
2018-07-19T19:59:31.854Z,52.27
2018-07-19T20:02:01.650Z,52.42
2018-07-19T20:04:31.384Z,51.92
2018-07-19T20:07:01.427Z,52.95
2018-07-19T20:09:31.256Z,52.84
2018-07-19T20:12:00.447Z,53.78
2018-07-19T20:14:29.427Z,53.88
2018-07-19T20:16:59.378Z,53.85
2018-07-19T20:19:28.167Z,53.97
2018-07-19T20:21:56.907Z,54.03
2018-07-19T20:24:25.687Z,55.30
2018-07-19T20:26:54.451Z,55.57
2018-07-19T20:29:23.307Z,55.62
2018-07-19T20:31:52.163Z,55.11
2018-07-19T20:34:21.271Z,55.75
2018-07-19T20:36:50.897Z,56.03
2018-07-19T20:39:19.664Z,56.35
2018-07-19T20:41:48.940Z,55.92
2018-07-19T20:44:17.715Z,56.17
2018-07-19T20:46:46.456Z,56.67
2018-07-19T20:49:15.246Z,57.48
2018-07-19T20:51:43.990Z,58.27
2018-07-19T20:54:13.596Z,58.69
2018-07-19T20:56:42.975Z,58.23
2018-07-19T20:59:11.738Z,59.08
2018-07-19T21:01:41.427Z,58.59
2018-07-19T21:04:10.628Z,57.79
2018-07-19T21:06:39.380Z,58.04
2018-07-19T21:09:10.043Z,58.07
2018-07-19T21:11:39.599Z,58.43
2018-07-19T21:14:09.559Z,59.07
2018-07-19T21:16:39.261Z,58.63
2018-07-19T21:19:08.022Z,59.22
2018-07-19T21:21:36.763Z,60.13
2018-07-19T21:24:05.607Z,60.15
2018-07-19T21:26:34.386Z,60.28
2018-07-19T21:29:04.063Z,60.44
2018-07-19T21:31:32.922Z,60.17
2018-07-19T21:34:01.895Z,60.48
2018-07-19T21:36:32.479Z,61.55
2018-07-19T21:39:01.471Z,61.55
2018-07-19T21:41:31.267Z,62.41
2018-07-19T21:44:00.418Z,61.87
2018-07-19T21:46:29.457Z,62.11
2018-07-19T21:48:58.263Z,63.09
2018-07-19T21:51:27.059Z,63.30
2018-07-19T21:53:56.874Z,63.17
2018-07-19T21:56:26.331Z,62.94
2018-07-19T21:58:55.095Z,62.82
2018-07-19T22:01:24.740Z,61.70
2018-07-19T22:03:54.374Z,62.28
2018-07-19T22:06:23.166Z,63.41
2018-07-19T22:08:51.962Z,62.87
2018-07-19T22:11:21.723Z,63.02
2018-07-19T22:13:50.506Z,63.25
2018-07-19T22:16:19.811Z,64.08
2018-07-19T22:18:48.679Z,64.04
2018-07-19T22:21:17.515Z,63.37
2018-07-19T22:23:46.359Z,63.84
2018-07-19T22:26:15.173Z,64.03
2018-07-19T22:28:44.225Z,64.58
2018-07-19T22:31:13.464Z,65.52
2018-07-19T22:33:42.215Z,65.54
2018-07-19T22:36:11.574Z,65.35
2018-07-19T22:38:40.331Z,66.03
2018-07-19T22:41:09.227Z,66.52
2018-07-19T22:43:38.445Z,66.55
2018-07-19T22:46:07.288Z,66.90
2018-07-19T22:48:36.078Z,66.24
2018-07-19T22:51:04.945Z,67.36
2018-07-19T22:53:34.423Z,67.07
2018-07-19T22:56:04.429Z,68.31
2018-07-19T22:58:33.328Z,67.75
2018-07-19T23:01:02.621Z,68.45
2018-07-19T23:03:33.491Z,68.70
2018-07-19T23:06:02.487Z,68.68
2018-07-19T23:08:31.861Z,68.08
2018-07-19T23:11:01.725Z,67.76
2018-07-19T23:13:30.769Z,67.24
2018-07-19T23:16:00.646Z,67.25
2018-07-19T23:18:31.798Z,67.54
2018-07-19T23:21:00.718Z,67.26
2018-07-19T23:23:29.843Z,67.62
2018-07-19T23:25:58.701Z,67.63
2018-07-19T23:28:27.774Z,66.38
2018-07-19T23:30:56.702Z,66.54
2018-07-19T23:33:26.179Z,67.54
2018-07-19T23:36:00.168Z,67.48
2018-07-19T23:38:34.078Z,66.99
2018-07-19T23:41:06.272Z,68.22
2018-07-19T23:43:39.321Z,68.23
2018-07-19T23:46:17.951Z,68.99
2018-07-19T23:48:47.042Z,69.95
2018-07-19T23:51:15.847Z,69.61
2018-07-19T23:53:45.403Z,70.34
2018-07-19T23:56:14.792Z,69.67
2018-07-19T23:58:43.600Z,69.19
